Главная страница
METAR-TAF:

METAR-TAF

Аэропорты :

Сённерборг, Дания

широта: 54-58N, долгота: 009-47E, высота над уровнем моря: 7 м

Текущие метеонаблюдения

Эта сводка был подготовлена 39 минут назад, в 10:20 UTC
Ветер 12 Узел от западно-северо-западный, изменяющийся между западный-юго-западный и северо-западный
Температура 15°C
Влажность 63%
Давление 1013 hPa
Видимость 10 км и более
Отдельные облака на высоте 2500 фута

METAR: EKSB 251020Z 29012KT 250V320 9999 SCT025 15/08 Q1013

Время: 12:59 (10:59 UTC)

Прогноз

Эта сводка был подготовлена 2 часа и 0 минут назад, в 08:59 UTC
Прогноз действительный с 25-го 09 UTC до 25-го 16 UTC
Ветер 12 Узел от западно-северо-западный
Видимость 10 км и более
Рассеянная облачность на высоте 2000 фута

TAF: EKSB 250859Z 2509/2516 29012KT 9999 BKN020

Метеонаблюдения и прогнозы для более 4000 аэропортов (сводки METAR и TAF).

Имеющиеся станции представлены на карте желтыми и красными точками.

Чтобы увидеть название станции, наведите на нее мышь.

Затем щелкните, чтобы увидеть метеонаблюдения и метеопрогнозы.

Управление картой: чтобы увеличить масштаб, щелкните зеленые кнопки с черным крестиком; чтобы уменьшить масштаб, щелкните зеленую кнопку с тире; для просмотра соседних карт щелкайте зеленые стрелки.


METAR-TAF: